This is the latest recevied weather packets stored in our database for station/object KD6VPH. If no packets are shown the sender has not sent any weather packets the latest 10 day(s).
| Time | Temp. | Humidity | Pressure | Rain* | Wind** | Luminosity | Snow |
|---|---|---|---|---|---|---|---|
| 1777569326 | 16.11° C | 68% | 1018.5 hPa | 0 mm | - | 288 W/m² | - |
| 1777568726 | 15.56° C | 70% | 1018.8 hPa | 0 mm | - | 306 W/m² | - |
| 1777568126 | 15° C | 69% | 1018.7 hPa | 0 mm | - | 311 W/m² | - |
| 1777566926 | 13.89° C | 74% | 1018.9 hPa | 0 mm | - | 251 W/m² | - |
| 1777566326 | 13.33° C | 75% | 1018.9 hPa | 0 mm | - | 197 W/m² | - |
| 1777565726 | 13.33° C | 77% | 1018.9 hPa | 0 mm | - | 181 W/m² | - |
| 1777565126 | 12.22° C | 80% | 1019.1 hPa | 0 mm | - | 262 W/m² | - |
| 1777564526 | 11.11° C | 85% | 1019.1 hPa | 0 mm | - | 218 W/m² | - |
| 1777563926 | 10.56° C | 89% | 1019.1 hPa | 0 mm | - | 378 W/m² | - |
| 1777563326 | 9.44° C | 90% | 1019.2 hPa | 0 mm | - | 88 W/m² | - |
| 1777562726 | 8.89° C | 90% | 1019.3 hPa | 0 mm | - | 74 W/m² | - |
| 1777562416 | 8.33° C | 90% | 1019.3 hPa | 0 mm | - | 74 W/m² | - |
| 1777562126 | 8.33° C | 90% | 1019.3 hPa | 0 mm | - | 74 W/m² | - |
| 1777561526 | 7.78° C | 90% | 1019.4 hPa | 0 mm | - | 83 W/m² | - |
| 1777560926 | 7.22° C | 89% | 1019.5 hPa | 0 mm | - | 84 W/m² | - |
| 1777560326 | 7.22° C | 89% | 1019.4 hPa | 0 mm | - | 56 W/m² | - |
| 1777560015 | 6.67° C | 89% | 1019.4 hPa | 0 mm | - | 53 W/m² | - |
| 1777559726 | 6.67° C | 89% | 1019.4 hPa | 0 mm | - | 53 W/m² | - |
| 1777559126 | 6.67° C | 89% | 1019.4 hPa | 0 mm | - | 46 W/m² | - |
| 1777558526 | 6.67° C | 89% | 1019.4 hPa | 0 mm | - | 40 W/m² | - |
| 1777557926 | 6.11° C | 89% | 1019.4 hPa | 0 mm | - | 37 W/m² | - |
| 1777557326 | 6.11° C | 88% | 1019.3 hPa | 0 mm | - | 37 W/m² | - |
| 1777556726 | 6.11° C | 88% | 1019.2 hPa | 0 mm | - | 30 W/m² | - |
| 1777556126 | 6.11° C | 88% | 1019 hPa | 0 mm | - | 23 W/m² | - |
| 1777555526 | 6.11° C | 88% | 1019.2 hPa | 0 mm | - | 18 W/m² | - |
* Rain latest hour (hover to see other rain measurements)
** Current wind speed in m/s (hover to see current wind gust speed)